Aérodrome :
LOGIN :

S'inscrire | Disclaimer

   EN    FR    IT 

 










Légende :    VFR   VFR Marginal   IFR   IFR Intensif   IFR Très Intensif
Visi : 
Plafond : 
>= 8 km
>= 3000ft
5 à 8 km
1000 à 3000 ft
1500m à 5 km
500 à 1000 ft
800 à 1500m
200 à 500 ft
< 800m
< 200 ft
Symboles :   Orages  Brouillard  Fortes neiges  Fortes précipitations  Vent > 20 kt
SIGMETs :   Divers  Orages  Givrage  Turbulence  Onde Orograph.  Cendres Volcan.






- Altitude de l'aérodrome : 147 ft
- Code IATA : DUS


EDDL - Düsseldorf Int.

DERNIER METAR :
  • 210520Z 03003KT 4000 BR NSC M01/M01 Q1011 TEMPO 0800 FZFG BKN001

METARs EXPIRÉS :
  • 210450Z 04003KT 4500 BR NSC M01/M01 Q1011 TEMPO 0800 FZFG BKN001
  • 210420Z 04003KT 2500 BR NSC M01/M01 Q1011 TEMPO 0800 FZFG BKN001
  • 210350Z 02002KT 4500 BR NSC M01/M01 Q1011 BECMG 2500
  • 210320Z 04002KT 4500 BR NSC M01/M01 Q1011 BECMG 2500
  • 210250Z 03004KT 5000 BR NSC M01/M01 Q1012 BECMG 3000 BR

TAF TAF EDDL
Valide du 21 à 06h jusqu'au 22 à 12h UTC


210500Z 2106/2212 07005KT 3500 BR NSC
TEMPO 2106/2109 1200 BR BKN001
PROB40
TEMPO 2106/2108 0500 FZFG
BECMG 2108/2111 14008KT 9000
BECMG 2205/2208 15013KT



MET'MAP, la Météo Aéronautique d'un coup d'oeil ! - Copyright ORBIFLY Décembre 2007 - Disclaimer

ORBIFLY MET'MAP TEAM :

Programmation & Développement : Alexandra Zaïnal
Conception & Développement : Baudouin d'Aumeries
Co-Programmation & Développement : Marc-Olivier Méhu
Soutien technique & logistique : Manuel Goepfert

Contact : metmap@orbifly.com




SOURCES & CREDITS :

   NOAA